Terminal Aerodrome Forecast
Issued by NWS

Home | Current Version | Previous Version | Graphics & Text | Print | Product List | Glossary On
Versions: 1 2 3 4 5 6 7 8 9 10 11 12 13 14 15 16 17 18
000
FTUS43 KGRB 290500
TAFMTW
TAF
KMTW 290532Z 2906/3006 VRB03KT 6SM BR SCT250
      TEMPO 2909/2913 3SM BR
     FM291300 29007KT 5SM BR SCT060 BKN140
     FM291600 36010G19KT P6SM VCSH SCT012 OVC025
      TEMPO 2918/2922 5SM -SHRA BR BKN012
     FM292200 36010G17KT P6SM SCT012 OVC020=

USA.gov is the U.S. government's official web portal to all federal, state and local government web resources and services.